Provincetown III — WDB8185 — position and weather

sailwx.info

Track history (hours):
 
Tides and Currents Weather Stations Pressure Air Temp Water Temp Dewpoint Dewpoint Depression Visibility Wind Speed Wind Dir Waves Ship Positions

Provincetown III

Owner: MYSTIC FERRY LEASING LLC, BOSTON, MA. More information available from US FCC via Universal Licensing System and Coast Guard Vessel Documentation Center.

Last reported at 2015-May-07 20:31 UTC. Time now 2015-May-27 21:58 UTC.
Position N 41°38' W 070°54'.
Warning: this ship's position is 20 days out of date.

Length 30 m; draft 2 m.

Type: Passenger vessel. MMSI: 366954420.

Date/timePositionNaut miles runAvg speedWind from/ knotsBaromVisibWave heightAir tempDewpointWater temp
2015-May-07 20:31N 41°38' W 070°54'1717.8
2015-May-07 19:34N 41°23' W 071°04'2525.4
2015-May-07 18:33N 41°02' W 071°23'2625.5
2015-May-07 17:34N 40°39' W 071°39'2625.7
2015-May-07 16:34N 40°17' W 071°56'2525.4
2015-May-07 15:34N 39°57' W 072°16'2525.0
2015-May-07 14:34N 39°34' W 072°30'2624.8
2015-May-07 13:31N 39°11' W 072°46'2525.1
2015-May-07 12:32N 38°51' W 073°03'30620.4
2015-May-06 21:34N 34°39' W 076°41'4 4.4
2015-May-06 20:33N 34°43' W 076°42'0 0.0
2015-May-06 19:33N 34°43' W 076°42'0 0.0
2015-May-06 18:33N 34°43' W 076°42'0 0.0
2015-May-06 17:33N 34°43' W 076°42'0 0.0
2015-May-06 16:34N 34°43' W 076°42'2 2.1
2015-May-06 15:33N 34°45' W 076°41'8 7.6
2015-May-06 14:33N 34°52' W 076°42'  
2015-May-01 14:33N 34°58' W 076°41'8 8.6
2015-May-01 13:33N 34°50' W 076°41'7 6.5
2015-May-01 12:33N 34°43' W 076°42'1 0.6
2015-May-01 11:33N 34°43' W 076°42'48210.4
2015-Apr-29 13:12N 27°08' W 079°48'1827.4
2015-Apr-29 12:33N 26°55' W 079°35'  
Track history (hours):
 
Tides and Currents Weather Stations Pressure Air Temp Water Temp Dewpoint Dewpoint Depression Visibility Wind Speed Wind Dir Waves Ship Positions

Provincetown III

Owner: MYSTIC FERRY LEASING LLC, BOSTON, MA. More information available from US FCC via Universal Licensing System and Coast Guard Vessel Documentation Center.

Last reported at 2015-May-07 20:31 UTC. Time now 2015-May-27 21:58 UTC.
Position N 41°38' W 070°54'.
Warning: this ship's position is 20 days out of date.

Length 30 m; draft 2 m.

Type: Passenger vessel. MMSI: 366954420.

Date/timePositionNaut miles runAvg speedWind from/ knotsBaromVisibWave heightAir tempDewpointWater temp
2015-May-07 20:31N 41°38' W 070°54'1717.8
2015-May-07 19:34N 41°23' W 071°04'2525.4
2015-May-07 18:33N 41°02' W 071°23'2625.5
2015-May-07 17:34N 40°39' W 071°39'2625.7
2015-May-07 16:34N 40°17' W 071°56'2525.4
2015-May-07 15:34N 39°57' W 072°16'2525.0
2015-May-07 14:34N 39°34' W 072°30'2624.8
2015-May-07 13:31N 39°11' W 072°46'2525.1
2015-May-07 12:32N 38°51' W 073°03'30620.4
2015-May-06 21:34N 34°39' W 076°41'4 4.4
2015-May-06 20:33N 34°43' W 076°42'0 0.0
2015-May-06 19:33N 34°43' W 076°42'0 0.0
2015-May-06 18:33N 34°43' W 076°42'0 0.0
2015-May-06 17:33N 34°43' W 076°42'0 0.0
2015-May-06 16:34N 34°43' W 076°42'2 2.1
2015-May-06 15:33N 34°45' W 076°41'8 7.6
2015-May-06 14:33N 34°52' W 076°42'  
2015-May-01 14:33N 34°58' W 076°41'8 8.6
2015-May-01 13:33N 34°50' W 076°41'7 6.5
2015-May-01 12:33N 34°43' W 076°42'1 0.6
2015-May-01 11:33N 34°43' W 076°42'48210.4
2015-Apr-29 13:12N 27°08' W 079°48'1827.4
2015-Apr-29 12:33N 26°55' W 079°35'  

Dump ship's entire track history